GLO1734 SBBR-SBSL
Flight info
| Callsign | GLO1734 |
|---|---|
| Flight time | N/A |
| Altitude | 37000 |
| Route | PULUV UZ2 UCROK |
| Aircraft | B738/M-SDFGIKLORWXY/LB1 |
Departure
| Time | N/A |
|---|---|
| Airport | Presidente Juscelino Kubitschek International Airport (SBBR) |
Arrival
| Time | 2026-04-18 06:02 |
|---|---|
| Airport | Marechal Cunha Machado International Airport (SBSL) |
| Time | Latitude | Longitude | Altitude | Speed | Heading |
|---|---|---|---|---|---|
| 2026-04-18 04:38 | -12.14668 | -46.96998 | 36862 ft | 472 kts | 12° |
| 2026-04-18 04:39 | -12.08287 | -46.95354 | 36871 ft | 472 kts | 12° |
| 2026-04-18 04:39 | -12.01905 | -46.93710 | 36864 ft | 473 kts | 12° |
| 2026-04-18 04:40 | -11.95526 | -46.92068 | 36877 ft | 473 kts | 12° |
| 2026-04-18 04:40 | -11.90220 | -46.90625 | 36869 ft | 474 kts | 14° |
| 2026-04-18 04:41 | -11.83905 | -46.88625 | 36878 ft | 475 kts | 15° |
| 2026-04-18 04:41 | -11.77639 | -46.86582 | 36876 ft | 475 kts | 15° |
| 2026-04-18 04:42 | -11.71328 | -46.84554 | 36883 ft | 475 kts | 15° |
| 2026-04-18 04:42 | -11.65002 | -46.82546 | 36882 ft | 475 kts | 15° |
| 2026-04-18 04:43 | -11.58674 | -46.80546 | 36883 ft | 475 kts | 15° |
| 2026-04-18 04:43 | -11.52405 | -46.78565 | 36885 ft | 475 kts | 15° |
| 2026-04-18 04:44 | -11.46094 | -46.76571 | 36887 ft | 475 kts | 15° |
| 2026-04-18 04:44 | -11.39782 | -46.74576 | 36884 ft | 474 kts | 15° |
| 2026-04-18 04:45 | -11.33464 | -46.72581 | 36892 ft | 474 kts | 15° |
| 2026-04-18 04:45 | -11.27157 | -46.70590 | 36885 ft | 474 kts | 15° |
| 2026-04-18 04:46 | -11.20853 | -46.68601 | 36890 ft | 474 kts | 15° |
| 2026-04-18 04:46 | -11.14555 | -46.66615 | 36883 ft | 474 kts | 15° |
| 2026-04-18 04:47 | -11.08255 | -46.64629 | 36892 ft | 474 kts | 15° |
| 2026-04-18 04:47 | -11.01955 | -46.62643 | 36885 ft | 474 kts | 15° |
| 2026-04-18 04:48 | -10.95657 | -46.60660 | 36889 ft | 474 kts | 15° |
| 2026-04-18 04:48 | -10.89402 | -46.58691 | 36878 ft | 474 kts | 15° |
| 2026-04-18 04:49 | -10.83106 | -46.56710 | 36877 ft | 473 kts | 15° |
| 2026-04-18 04:49 | -10.76800 | -46.54726 | 36894 ft | 473 kts | 15° |
| 2026-04-18 04:50 | -10.70509 | -46.52748 | 36887 ft | 473 kts | 15° |
| 2026-04-18 04:50 | -10.64217 | -46.50771 | 36887 ft | 474 kts | 15° |
| 2026-04-18 04:51 | -10.57909 | -46.48789 | 36874 ft | 474 kts | 15° |
| 2026-04-18 04:51 | -10.51607 | -46.46810 | 36881 ft | 474 kts | 15° |
| 2026-04-18 04:52 | -10.45299 | -46.44830 | 36887 ft | 474 kts | 15° |
| 2026-04-18 04:52 | -10.39024 | -46.42862 | 36870 ft | 474 kts | 15° |
| 2026-04-18 04:53 | -10.32717 | -46.40884 | 36876 ft | 474 kts | 15° |
| 2026-04-18 04:53 | -10.26401 | -46.38903 | 36880 ft | 474 kts | 15° |
| 2026-04-18 04:54 | -10.20103 | -46.36929 | 36879 ft | 473 kts | 15° |
| 2026-04-18 04:54 | -10.13794 | -46.35001 | 36867 ft | 473 kts | 14° |
| 2026-04-18 04:55 | -10.07458 | -46.33200 | 36883 ft | 472 kts | 14° |
| 2026-04-18 04:55 | -10.01153 | -46.31422 | 36874 ft | 472 kts | 14° |
| 2026-04-18 04:56 | -9.91631 | -46.28708 | 36869 ft | 472 kts | 14° |
| 2026-04-18 04:56 | -9.85348 | -46.26908 | 36875 ft | 472 kts | 14° |
| 2026-04-18 04:57 | -9.79025 | -46.25098 | 36879 ft | 472 kts | 15° |
| 2026-04-18 04:57 | -9.72694 | -46.23286 | 36860 ft | 471 kts | 15° |
| 2026-04-18 04:58 | -9.66381 | -46.21482 | 36872 ft | 471 kts | 15° |
| 2026-04-18 04:58 | -9.60075 | -46.19680 | 36861 ft | 470 kts | 15° |
| 2026-04-18 04:59 | -9.53772 | -46.17879 | 36865 ft | 470 kts | 15° |
| 2026-04-18 04:59 | -9.47522 | -46.16094 | 36853 ft | 469 kts | 15° |
| 2026-04-18 05:00 | -9.41224 | -46.14295 | 36870 ft | 469 kts | 15° |
| 2026-04-18 05:00 | -9.34949 | -46.12505 | 36872 ft | 469 kts | 15° |
| 2026-04-18 05:01 | -9.28673 | -46.10715 | 36859 ft | 469 kts | 15° |
| 2026-04-18 05:01 | -9.22388 | -46.08922 | 36867 ft | 468 kts | 15° |
| 2026-04-18 05:02 | -9.16152 | -46.07144 | 36869 ft | 468 kts | 15° |
| 2026-04-18 05:02 | -9.09873 | -46.05354 | 36871 ft | 469 kts | 15° |
| 2026-04-18 05:03 | -9.03597 | -46.03558 | 36867 ft | 469 kts | 15° |
| 2026-04-18 05:03 | -8.97322 | -46.01758 | 36859 ft | 469 kts | 15° |
| 2026-04-18 05:04 | -8.91077 | -45.99967 | 36873 ft | 469 kts | 15° |
| 2026-04-18 05:04 | -8.84878 | -45.98191 | 36863 ft | 470 kts | 15° |
| 2026-04-18 05:05 | -8.78585 | -45.96389 | 36861 ft | 471 kts | 16° |
| 2026-04-18 05:05 | -8.72262 | -45.94579 | 36873 ft | 471 kts | 16° |
| 2026-04-18 05:06 | -8.65946 | -45.92772 | 36871 ft | 472 kts | 16° |
| 2026-04-18 05:06 | -8.59611 | -45.90960 | 36872 ft | 473 kts | 16° |
| 2026-04-18 05:07 | -8.53268 | -45.89146 | 36866 ft | 474 kts | 16° |
| 2026-04-18 05:07 | -8.46917 | -45.87331 | 36874 ft | 474 kts | 16° |
| 2026-04-18 05:08 | -8.40606 | -45.85527 | 36867 ft | 474 kts | 16° |
| 2026-04-18 05:08 | -8.34260 | -45.83714 | 36863 ft | 474 kts | 16° |
| 2026-04-18 05:09 | -8.27909 | -45.81900 | 36873 ft | 474 kts | 16° |
| 2026-04-18 05:09 | -8.21559 | -45.80087 | 36870 ft | 473 kts | 16° |
| 2026-04-18 05:10 | -8.15216 | -45.78276 | 36877 ft | 473 kts | 15° |
| 2026-04-18 05:10 | -8.08872 | -45.76487 | 36864 ft | 473 kts | 14° |
| 2026-04-18 05:11 | -8.02527 | -45.74720 | 36867 ft | 473 kts | 14° |
| 2026-04-18 05:11 | -7.96179 | -45.72952 | 36867 ft | 473 kts | 14° |
| 2026-04-18 05:12 | -7.89864 | -45.71189 | 36864 ft | 473 kts | 14° |
| 2026-04-18 05:12 | -7.83514 | -45.69417 | 36863 ft | 474 kts | 15° |
| 2026-04-18 05:13 | -7.77162 | -45.67643 | 36863 ft | 474 kts | 15° |
| 2026-04-18 05:13 | -7.70791 | -45.65864 | 36854 ft | 475 kts | 15° |
| 2026-04-18 05:14 | -7.64419 | -45.64086 | 36861 ft | 475 kts | 15° |
| 2026-04-18 05:14 | -7.58082 | -45.62319 | 36856 ft | 476 kts | 15° |
| 2026-04-18 05:15 | -7.51686 | -45.60536 | 36856 ft | 476 kts | 15° |
| 2026-04-18 05:15 | -7.45301 | -45.58756 | 36853 ft | 476 kts | 15° |
| 2026-04-18 05:16 | -7.38898 | -45.56972 | 36851 ft | 477 kts | 16° |
| 2026-04-18 05:16 | -7.32501 | -45.55190 | 36848 ft | 477 kts | 16° |
| 2026-04-18 05:17 | -7.26086 | -45.53403 | 36847 ft | 477 kts | 16° |
| 2026-04-18 05:17 | -7.19715 | -45.51629 | 36844 ft | 478 kts | 16° |
| 2026-04-18 05:18 | -7.13306 | -45.49846 | 36848 ft | 478 kts | 16° |
| 2026-04-18 05:18 | -7.06895 | -45.48062 | 36848 ft | 477 kts | 16° |
| 2026-04-18 05:19 | -7.00495 | -45.46282 | 36855 ft | 477 kts | 16° |
| 2026-04-18 05:19 | -6.94094 | -45.44502 | 36852 ft | 477 kts | 16° |
| 2026-04-18 05:20 | -6.87703 | -45.42725 | 36856 ft | 477 kts | 16° |
| 2026-04-18 05:20 | -6.81299 | -45.40945 | 36854 ft | 476 kts | 16° |
| 2026-04-18 05:21 | -6.74950 | -45.39181 | 36858 ft | 476 kts | 16° |
| 2026-04-18 05:21 | -6.68559 | -45.37405 | 36857 ft | 476 kts | 16° |
| 2026-04-18 05:22 | -6.62180 | -45.35634 | 36859 ft | 476 kts | 16° |
| 2026-04-18 05:22 | -6.55793 | -45.33861 | 36860 ft | 476 kts | 16° |
| 2026-04-18 05:23 | -6.49408 | -45.32088 | 36860 ft | 476 kts | 16° |
| 2026-04-18 05:23 | -6.43028 | -45.30318 | 36858 ft | 476 kts | 16° |
| 2026-04-18 05:24 | -6.36674 | -45.28555 | 36854 ft | 476 kts | 16° |
| 2026-04-18 05:24 | -6.30287 | -45.26783 | 36856 ft | 476 kts | 16° |
| 2026-04-18 05:25 | -6.23888 | -45.25008 | 36852 ft | 476 kts | 16° |
| 2026-04-18 05:25 | -6.17490 | -45.23233 | 36851 ft | 477 kts | 16° |
| 2026-04-18 05:26 | -6.11120 | -45.21459 | 36848 ft | 477 kts | 16° |
| 2026-04-18 05:26 | -6.05758 | -45.19966 | 36846 ft | 477 kts | 16° |
| 2026-04-18 05:27 | -5.99368 | -45.18188 | 36845 ft | 477 kts | 16° |
| 2026-04-18 05:27 | -5.93010 | -45.16419 | 36841 ft | 477 kts | 16° |
| 2026-04-18 05:28 | -5.86617 | -45.14624 | 36841 ft | 477 kts | 16° |
| 2026-04-18 05:28 | -5.80222 | -45.12810 | 36841 ft | 477 kts | 16° |
| 2026-04-18 05:29 | -5.73833 | -45.10998 | 36840 ft | 477 kts | 16° |
| 2026-04-18 05:29 | -5.67433 | -45.09185 | 36834 ft | 477 kts | 16° |
| 2026-04-18 05:30 | -5.61032 | -45.07375 | 36839 ft | 477 kts | 16° |
| 2026-04-18 05:30 | -5.54677 | -45.05578 | 36836 ft | 477 kts | 16° |
| 2026-04-18 05:31 | -5.48280 | -45.03769 | 36834 ft | 477 kts | 16° |
| 2026-04-18 05:31 | -5.41877 | -45.01959 | 36831 ft | 477 kts | 16° |
| 2026-04-18 05:32 | -5.35475 | -45.00149 | 36832 ft | 477 kts | 16° |
| 2026-04-18 05:32 | -5.29222 | -44.98382 | 36832 ft | 477 kts | 16° |
| 2026-04-18 05:33 | -5.22833 | -44.96578 | 36833 ft | 477 kts | 16° |
| 2026-04-18 05:33 | -5.16444 | -44.94773 | 36835 ft | 477 kts | 16° |
| 2026-04-18 05:34 | -5.10052 | -44.92968 | 36835 ft | 477 kts | 16° |
| 2026-04-18 05:34 | -5.03669 | -44.91166 | 36830 ft | 477 kts | 16° |
| 2026-04-18 05:35 | -4.97314 | -44.89372 | 36832 ft | 477 kts | 16° |
| 2026-04-18 05:35 | -4.90930 | -44.87570 | 36837 ft | 477 kts | 16° |
| 2026-04-18 05:36 | -4.84540 | -44.85767 | 36834 ft | 477 kts | 16° |
| 2026-04-18 05:36 | -4.81328 | -44.84861 | 36627 ft | 481 kts | 16° |
| 2026-04-18 05:36 | -4.78090 | -44.83947 | 36109 ft | 483 kts | 16° |
| 2026-04-18 05:37 | -4.74858 | -44.83035 | 35549 ft | 482 kts | 16° |
| 2026-04-18 05:37 | -4.71626 | -44.82124 | 34940 ft | 483 kts | 16° |
| 2026-04-18 05:37 | -4.68390 | -44.81212 | 34296 ft | 485 kts | 16° |
| 2026-04-18 05:37 | -4.65119 | -44.80289 | 33610 ft | 488 kts | 15° |
| 2026-04-18 05:38 | -4.61842 | -44.79365 | 32890 ft | 490 kts | 15° |
| 2026-04-18 05:38 | -4.58558 | -44.78439 | 32205 ft | 490 kts | 15° |
| 2026-04-18 05:38 | -4.55315 | -44.77525 | 31633 ft | 489 kts | 15° |
| 2026-04-18 05:38 | -4.52043 | -44.76603 | 31154 ft | 484 kts | 15° |
| 2026-04-18 05:39 | -4.48807 | -44.75690 | 30668 ft | 480 kts | 15° |
| 2026-04-18 05:39 | -4.45600 | -44.74786 | 30169 ft | 477 kts | 15° |
| 2026-04-18 05:39 | -4.42414 | -44.73888 | 29654 ft | 473 kts | 15° |
| 2026-04-18 05:39 | -4.39258 | -44.72999 | 29108 ft | 468 kts | 15° |
| 2026-04-18 05:40 | -4.36137 | -44.72119 | 28596 ft | 463 kts | 15° |
| 2026-04-18 05:40 | -4.33082 | -44.71258 | 28101 ft | 458 kts | 15° |
| 2026-04-18 05:40 | -4.30030 | -44.70399 | 27625 ft | 453 kts | 15° |
| 2026-04-18 05:40 | -4.26962 | -44.69557 | 27139 ft | 448 kts | 14° |
| 2026-04-18 05:41 | -4.23994 | -44.68799 | 26672 ft | 444 kts | 14° |
| 2026-04-18 05:41 | -4.21009 | -44.68061 | 26208 ft | 440 kts | 13° |
| 2026-04-18 05:41 | -4.18048 | -44.67332 | 25741 ft | 436 kts | 14° |
| 2026-04-18 05:41 | -4.15112 | -44.66605 | 25279 ft | 433 kts | 14° |
| 2026-04-18 05:42 | -4.12197 | -44.65878 | 24802 ft | 430 kts | 14° |
| 2026-04-18 05:42 | -4.09298 | -44.65150 | 24333 ft | 427 kts | 14° |
| 2026-04-18 05:42 | -4.06424 | -44.64426 | 23865 ft | 425 kts | 14° |
| 2026-04-18 05:42 | -4.03576 | -44.63709 | 23404 ft | 422 kts | 14° |
| 2026-04-18 05:43 | -4.00730 | -44.62991 | 22873 ft | 419 kts | 14° |
| 2026-04-18 05:43 | -3.97915 | -44.62282 | 22401 ft | 415 kts | 14° |
| 2026-04-18 05:43 | -3.95133 | -44.61581 | 21933 ft | 411 kts | 14° |
| 2026-04-18 05:43 | -3.92376 | -44.60887 | 21483 ft | 407 kts | 14° |
| 2026-04-18 05:44 | -3.89652 | -44.60179 | 21059 ft | 402 kts | 16° |
| 2026-04-18 05:44 | -3.86981 | -44.59405 | 20635 ft | 398 kts | 17° |
| 2026-04-18 05:44 | -3.84348 | -44.58606 | 20202 ft | 394 kts | 18° |
| 2026-04-18 05:44 | -3.81730 | -44.57802 | 19773 ft | 391 kts | 18° |
| 2026-04-18 05:45 | -3.79145 | -44.57011 | 19342 ft | 388 kts | 18° |
| 2026-04-18 05:45 | -3.76596 | -44.56236 | 18904 ft | 386 kts | 18° |
| 2026-04-18 05:45 | -3.74032 | -44.55461 | 18460 ft | 384 kts | 18° |
| 2026-04-18 05:45 | -3.71483 | -44.54694 | 18011 ft | 381 kts | 18° |
| 2026-04-18 05:46 | -3.68949 | -44.53935 | 17532 ft | 379 kts | 18° |
| 2026-04-18 05:46 | -3.66429 | -44.53180 | 17085 ft | 375 kts | 18° |
| 2026-04-18 05:46 | -3.63937 | -44.52435 | 16653 ft | 372 kts | 18° |
| 2026-04-18 05:46 | -3.61470 | -44.51698 | 16229 ft | 369 kts | 18° |
| 2026-04-18 05:47 | -3.59018 | -44.50965 | 15816 ft | 366 kts | 18° |
| 2026-04-18 05:47 | -3.56611 | -44.50245 | 15407 ft | 363 kts | 18° |
| 2026-04-18 05:47 | -3.54196 | -44.49523 | 14997 ft | 361 kts | 18° |
| 2026-04-18 05:47 | -3.51797 | -44.48806 | 14584 ft | 359 kts | 18° |
| 2026-04-18 05:48 | -3.49410 | -44.48093 | 14172 ft | 357 kts | 18° |
| 2026-04-18 05:48 | -3.47035 | -44.47383 | 13751 ft | 356 kts | 18° |
| 2026-04-18 05:48 | -3.44664 | -44.46674 | 13296 ft | 354 kts | 18° |
| 2026-04-18 05:48 | -3.42308 | -44.45970 | 12880 ft | 352 kts | 18° |
| 2026-04-18 05:49 | -3.39975 | -44.45273 | 12467 ft | 349 kts | 18° |
| 2026-04-18 05:49 | -3.37655 | -44.44580 | 12064 ft | 346 kts | 18° |
| 2026-04-18 05:49 | -3.35351 | -44.43892 | 11666 ft | 344 kts | 18° |
| 2026-04-18 05:49 | -3.33065 | -44.43209 | 11257 ft | 341 kts | 18° |
| 2026-04-18 05:50 | -3.30790 | -44.42529 | 10881 ft | 339 kts | 18° |
| 2026-04-18 05:50 | -3.28537 | -44.41856 | 10497 ft | 337 kts | 18° |
| 2026-04-18 05:50 | -3.26310 | -44.41191 | 10292 ft | 329 kts | 18° |
| 2026-04-18 05:50 | -3.24136 | -44.40542 | 10122 ft | 321 kts | 18° |
| 2026-04-18 05:51 | -3.22058 | -44.39922 | 9985 ft | 312 kts | 18° |
| 2026-04-18 05:51 | -3.20008 | -44.39310 | 9850 ft | 303 kts | 18° |
| 2026-04-18 05:51 | -3.18005 | -44.38712 | 9556 ft | 301 kts | 18° |
| 2026-04-18 05:51 | -3.16000 | -44.38112 | 9248 ft | 298 kts | 18° |
| 2026-04-18 05:52 | -3.14039 | -44.37527 | 8927 ft | 292 kts | 18° |
| 2026-04-18 05:52 | -3.12102 | -44.36948 | 8638 ft | 290 kts | 18° |
| 2026-04-18 05:52 | -3.10174 | -44.36372 | 8342 ft | 288 kts | 19° |
| 2026-04-18 05:52 | -3.08259 | -44.35800 | 8046 ft | 287 kts | 19° |
| 2026-04-18 05:53 | -3.06353 | -44.35230 | 7754 ft | 285 kts | 19° |
| 2026-04-18 05:53 | -3.04450 | -44.34662 | 7461 ft | 284 kts | 19° |
| 2026-04-18 05:53 | -3.02775 | -44.34161 | 7204 ft | 283 kts | 19° |
| 2026-04-18 05:53 | -3.00888 | -44.33598 | 6913 ft | 282 kts | 19° |
| 2026-04-18 05:54 | -2.99032 | -44.33044 | 6629 ft | 282 kts | 19° |
| 2026-04-18 05:54 | -2.97157 | -44.32483 | 6337 ft | 281 kts | 19° |
| 2026-04-18 05:54 | -2.95286 | -44.31925 | 6039 ft | 280 kts | 19° |
| 2026-04-18 05:54 | -2.93418 | -44.31367 | 5727 ft | 280 kts | 19° |
| 2026-04-18 05:55 | -2.91557 | -44.30811 | 5433 ft | 279 kts | 19° |
| 2026-04-18 05:55 | -2.89699 | -44.30256 | 5144 ft | 278 kts | 19° |
| 2026-04-18 05:55 | -2.87851 | -44.29704 | 4852 ft | 277 kts | 19° |
| 2026-04-18 05:55 | -2.86009 | -44.29154 | 4567 ft | 276 kts | 19° |
| 2026-04-18 05:56 | -2.84173 | -44.28606 | 4268 ft | 275 kts | 19° |
| 2026-04-18 05:56 | -2.82349 | -44.28062 | 4024 ft | 272 kts | 18° |
| 2026-04-18 05:56 | -2.80538 | -44.27624 | 3892 ft | 266 kts | 4° |
| 2026-04-18 05:56 | -2.78778 | -44.28001 | 3906 ft | 258 kts | 334° |
| 2026-04-18 05:57 | -2.76280 | -44.30417 | 3635 ft | 243 kts | 309° |
| 2026-04-18 05:57 | -2.75235 | -44.31715 | 3524 ft | 230 kts | 310° |
| 2026-04-18 05:57 | -2.74270 | -44.32908 | 3430 ft | 217 kts | 311° |
| 2026-04-18 05:58 | -2.73142 | -44.33777 | 3289 ft | 197 kts | 347° |
| 2026-04-18 05:58 | -2.71844 | -44.33778 | 2944 ft | 189 kts | 19° |
| 2026-04-18 05:58 | -2.70702 | -44.33184 | 2642 ft | 182 kts | 37° |
| 2026-04-18 05:58 | -2.69696 | -44.32440 | 2410 ft | 176 kts | 39° |
| 2026-04-18 05:59 | -2.68775 | -44.31706 | 2235 ft | 164 kts | 40° |
| 2026-04-18 05:59 | -2.67921 | -44.31014 | 2132 ft | 151 kts | 40° |
| 2026-04-18 05:59 | -2.67126 | -44.30368 | 2004 ft | 149 kts | 40° |
| 2026-04-18 05:59 | -2.66335 | -44.29725 | 1817 ft | 145 kts | 40° |
| 2026-04-18 06:00 | -2.65562 | -44.29098 | 1636 ft | 142 kts | 40° |
| 2026-04-18 06:00 | -2.64791 | -44.28472 | 1441 ft | 143 kts | 40° |
| 2026-04-18 06:00 | -2.64027 | -44.27852 | 1264 ft | 144 kts | 39° |
| 2026-04-18 06:00 | -2.63249 | -44.27220 | 1071 ft | 144 kts | 40° |
| 2026-04-18 06:01 | -2.62467 | -44.26586 | 895 ft | 146 kts | 40° |
| 2026-04-18 06:01 | -2.61653 | -44.25924 | 744 ft | 150 kts | 40° |
| 2026-04-18 06:01 | -2.60839 | -44.25259 | 526 ft | 151 kts | 40° |
| 2026-04-18 06:01 | -2.60041 | -44.24616 | 306 ft | 148 kts | 39° |
| 2026-04-18 06:02 | -2.59256 | -44.23984 | 161 ft | 136 kts | 40° |
| 2026-04-18 06:02 | -2.58659 | -44.23502 | 163 ft | 69 kts | 39° |
| 2026-04-18 06:02 | -2.58529 | -44.23398 | 162 ft | 9 kts | 31° |
| 2026-04-18 06:02 | -2.58482 | -44.23402 | 162 ft | 7 kts | 328° |
| 2026-04-18 06:03 | -2.58449 | -44.23435 | 162 ft | 7 kts | 307° |
| 2026-04-18 06:03 | -2.58447 | -44.23480 | 162 ft | 7 kts | 250° |
| 2026-04-18 06:03 | -2.58463 | -44.23523 | 162 ft | 7 kts | 249° |
| 2026-04-18 06:03 | -2.58478 | -44.23565 | 162 ft | 6 kts | 250° |
| 2026-04-18 06:04 | -2.58493 | -44.23606 | 162 ft | 6 kts | 250° |
| 2026-04-18 06:04 | -2.58488 | -44.23638 | 163 ft | 5 kts | 317° |
| 2026-04-18 06:04 | -2.58458 | -44.23651 | 163 ft | 4 kts | 341° |
| 2026-04-18 06:04 | -2.58454 | -44.23653 | 163 ft | 1 kts | 341° |
| 2026-04-18 06:05 | -2.58450 | -44.23654 | 163 ft | 0 kts | 341° |
| 2026-04-18 06:05 | -2.58449 | -44.23655 | 163 ft | 0 kts | 341° |